Etusivu
METAR-TAF:

METAR-TAF

Lentoasemat :

Šiauliai, Liettua

Leveyspiiri: 55-53-38N, Pituuspiiri: 023-23-42E, korkeus merenpinnasta: 135 m

Tämänhetkinen sää

Tämä raportti tehtiin 11 minuuttia sitten, kello 04.50 UTC
Tuuli 9 kn lounaasta
Lämpötila 10°C
Kosteus 82%
Ilmanpaine 1015 hPa
Näkyvyys 10 km tai enemmän
ei pilviä alle 1500 m:ssä eikä cumulonimbus-pilviä

METAR: EYSA 230450Z 23009KT CAVOK 10/07 Q1015 BLU NOSIG

Aika: 08:01 (05:01 UTC)

Sääennuste

Tämä raportti tehtiin 3 tuntia ja 1 minuuttia sitten, kello 02.00 UTC
Ennuste voimassa 23. päivästä klo 03 UTC - 23. päivään klo 12 UTC
Tuuli 6 kn lännestä/lounaasta
Näkyvyys: 8000 m
Tulossa
23. päivästä klo 06 UTC - 23. päivään klo 08 UTC
Tuuli 16 kn lännestä/lounaasta
Hajonneita pilviä 4500 ft:n korkeudessa

TAF: EYSA 230200Z 2303/2312 24006KT 8000 NSC BECMG 2306/2308 24016KT BKN045

Säähavainnot ja -ennusteet yli 4000 lentoasemalta (METAR- ja TAF-raportit).

Käytössä olevat sääasemat on merkitty karttaan keltaisilla ja punaisilla pisteillä.

Aseta hiiri pisteen päälle nähdäksesi sääaseman nimen.

Klikkaa sitten nähdäksesi säähavainnot ja -ennusteet.

Kartan vaihtaminen: klikkaa mustalla rastilla varustettuja vihreitä pisteitä, niin voit zoomata sisään; viivalla varustettua vihreää pistettä, niin voit zoomata ulos tai vihreitä nuolia, niin pääset viereisille kartoille.


METAR-TAF: